createdAt,value
2022-08-21T00:03:50.449Z,38.20
2022-08-21T00:10:00.153Z,37.70
2022-08-21T00:16:14.996Z,37.40
2022-08-21T00:22:25.653Z,37.50
2022-08-21T00:28:36.451Z,37.60
2022-08-21T00:34:50.407Z,37.70
2022-08-21T00:41:02.817Z,37.70
2022-08-21T00:47:14.737Z,37.80
2022-08-21T00:53:24.238Z,37.70
2022-08-21T00:59:33.465Z,37.80
2022-08-21T01:05:44.301Z,37.90
2022-08-21T01:11:55.938Z,38.50
2022-08-21T01:18:07.036Z,38.40
2022-08-21T01:24:17.916Z,38.40
2022-08-21T01:30:29.370Z,39.40
2022-08-21T01:36:38.160Z,39.40
2022-08-21T01:42:50.870Z,39.00
2022-08-21T01:49:01.553Z,38.70
2022-08-21T01:55:12.286Z,38.20
2022-08-21T02:01:20.438Z,38.10
2022-08-21T02:07:41.329Z,37.70
2022-08-21T02:13:50.326Z,37.40
2022-08-21T02:20:03.426Z,37.20
2022-08-21T02:26:13.426Z,36.90
2022-08-21T02:32:23.043Z,36.70
2022-08-21T02:38:37.902Z,36.40
2022-08-21T02:44:50.098Z,36.40
2022-08-21T02:51:03.429Z,36.30
2022-08-21T02:57:13.791Z,36.50
2022-08-21T03:03:24.319Z,36.30
2022-08-21T03:09:36.197Z,36.30
2022-08-21T03:15:46.113Z,36.20
2022-08-21T03:21:57.325Z,36.00
2022-08-21T03:28:07.974Z,35.90
2022-08-21T03:34:16.919Z,35.80
2022-08-21T03:40:26.947Z,35.70
2022-08-21T03:46:36.210Z,35.50
2022-08-21T03:52:48.305Z,35.60
2022-08-21T03:58:59.576Z,35.50
2022-08-21T04:05:12.514Z,35.40
2022-08-21T04:11:21.387Z,35.40
2022-08-21T04:17:32.543Z,35.40
2022-08-21T04:23:42.345Z,35.50
2022-08-21T04:29:51.363Z,35.40
2022-08-21T04:36:00.388Z,35.30
2022-08-21T04:42:10.857Z,35.40
2022-08-21T04:48:22.502Z,35.70
2022-08-21T04:54:35.101Z,35.50
2022-08-21T05:00:46.401Z,35.40
2022-08-21T05:06:57.434Z,35.30
2022-08-21T05:13:11.979Z,35.20
2022-08-21T05:19:24.153Z,35.20
2022-08-21T05:25:35.775Z,35.10
2022-08-21T05:31:47.266Z,35.10
2022-08-21T05:37:55.501Z,35.10
2022-08-21T05:44:10.095Z,35.10
2022-08-21T05:50:21.474Z,35.50
2022-08-21T05:56:32.971Z,35.80
2022-08-21T06:02:42.193Z,35.90
2022-08-21T06:08:51.428Z,36.10
2022-08-21T06:15:04.780Z,36.20
2022-08-21T06:21:15.002Z,36.20
2022-08-21T06:27:26.868Z,36.30
2022-08-21T06:33:35.924Z,36.50
2022-08-21T06:39:48.504Z,37.00
2022-08-21T06:46:00.199Z,37.40
2022-08-21T06:52:15.577Z,37.60
2022-08-21T06:58:26.662Z,37.70
2022-08-21T07:04:34.493Z,38.20
2022-08-21T07:10:45.164Z,38.40
2022-08-21T07:16:55.241Z,38.70
2022-08-21T07:23:10.575Z,38.60
2022-08-21T07:29:21.178Z,38.80
2022-08-21T07:35:32.437Z,39.30
2022-08-21T07:41:42.206Z,39.20
2022-08-21T07:47:52.024Z,39.20
2022-08-21T07:54:00.935Z,39.40
2022-08-21T08:00:15.137Z,39.30
2022-08-21T08:06:29.414Z,39.50
2022-08-21T08:12:40.141Z,39.50
2022-08-21T08:18:53.484Z,39.40
2022-08-21T08:25:05.158Z,39.50
2022-08-21T08:31:16.485Z,39.50
2022-08-21T08:37:34.186Z,39.80
2022-08-21T08:43:40.815Z,39.70
2022-08-21T08:49:53.089Z,39.70
2022-08-21T08:56:02.101Z,39.80
2022-08-21T09:02:16.172Z,39.90
2022-08-21T09:08:34.581Z,40.00
2022-08-21T09:14:58.341Z,40.00
2022-08-21T09:21:16.202Z,39.90
2022-08-21T09:27:28.895Z,40.00
2022-08-21T09:33:37.835Z,39.80
2022-08-21T09:39:48.673Z,38.90
2022-08-21T09:45:57.627Z,38.60
2022-08-21T09:52:09.296Z,38.10
2022-08-21T09:58:19.900Z,37.60
2022-08-21T10:04:36.454Z,37.10
2022-08-21T10:10:45.616Z,36.90
2022-08-21T10:17:04.443Z,37.40
2022-08-21T10:23:25.431Z,37.40
2022-08-21T10:29:44.253Z,37.50
2022-08-21T10:35:59.537Z,37.50
2022-08-21T10:42:25.971Z,37.60
2022-08-21T10:48:38.204Z,37.70
2022-08-21T10:54:49.918Z,38.50
2022-08-21T11:01:05.435Z,38.20
2022-08-21T11:07:17.788Z,38.50
2022-08-21T11:13:34.673Z,38.60
2022-08-21T11:19:45.750Z,38.90
2022-08-21T11:25:58.733Z,38.90
2022-08-21T11:32:32.459Z,39.10
2022-08-21T11:38:47.316Z,39.70
2022-08-21T11:45:01.638Z,39.70
2022-08-21T11:51:14.349Z,40.10
2022-08-21T11:57:27.722Z,40.20
2022-08-21T12:03:42.242Z,40.30
2022-08-21T12:10:02.621Z,41.00
2022-08-21T12:16:20.486Z,41.10
2022-08-21T12:22:32.190Z,41.40
2022-08-21T12:28:42.192Z,41.40
2022-08-21T12:34:56.580Z,41.70
2022-08-21T12:41:07.985Z,41.80
2022-08-21T12:47:24.447Z,41.60
2022-08-21T12:53:37.029Z,41.50
2022-08-21T12:59:45.164Z,41.50
2022-08-21T13:05:55.354Z,41.90
2022-08-21T13:12:04.632Z,42.30
2022-08-21T13:18:17.741Z,41.90
2022-08-21T13:24:46.179Z,41.90
2022-08-21T13:30:49.603Z,41.70
2022-08-21T13:37:05.327Z,41.50
2022-08-21T13:43:23.439Z,41.40
2022-08-21T13:49:41.186Z,41.60
2022-08-21T13:55:57.437Z,41.60
2022-08-21T14:02:17.779Z,41.30
2022-08-21T14:08:32.021Z,41.50
2022-08-21T14:14:46.357Z,41.60
2022-08-21T14:21:00.559Z,42.20
2022-08-21T14:27:12.484Z,42.50
2022-08-21T14:33:28.532Z,42.70
2022-08-21T14:39:42.397Z,42.50
2022-08-21T14:45:52.310Z,42.30
2022-08-21T14:52:04.708Z,42.30
2022-08-21T14:58:16.977Z,42.30
2022-08-21T15:04:28.496Z,42.30
2022-08-21T15:11:08.329Z,42.30
2022-08-21T15:16:55.290Z,42.30
2022-08-21T15:23:11.729Z,42.40
2022-08-21T15:29:22.670Z,42.40
2022-08-21T15:35:34.515Z,42.30
2022-08-21T15:41:47.325Z,42.00
2022-08-21T15:48:02.717Z,41.90
2022-08-21T15:54:16.308Z,42.00
2022-08-21T16:00:29.338Z,42.10
2022-08-21T16:07:09.707Z,41.90
2022-08-21T16:13:25.958Z,42.00
2022-08-21T16:19:40.676Z,42.40
2022-08-21T16:25:59.926Z,41.90
2022-08-21T16:32:18.647Z,42.00
2022-08-21T16:38:35.309Z,41.70
2022-08-21T16:44:56.458Z,41.50
2022-08-21T16:51:10.418Z,41.60
2022-08-21T16:57:29.213Z,41.70
2022-08-21T17:03:44.709Z,41.60
2022-08-21T17:09:58.862Z,41.60
2022-08-21T17:16:14.660Z,41.40
2022-08-21T17:22:28.787Z,41.50
2022-08-21T17:28:45.854Z,41.40
2022-08-21T17:34:56.567Z,41.50
2022-08-21T17:41:10.145Z,41.60
2022-08-21T17:47:26.014Z,41.50
2022-08-21T17:53:36.211Z,41.40
2022-08-21T17:59:44.885Z,41.40
2022-08-21T18:06:00.952Z,41.40
2022-08-21T18:12:30.720Z,41.60
2022-08-21T18:18:42.852Z,41.50
2022-08-21T18:25:00.003Z,41.40
2022-08-21T18:31:11.660Z,41.40
2022-08-21T18:37:24.018Z,41.30
2022-08-21T18:43:31.318Z,41.40
2022-08-21T18:49:42.130Z,41.30
2022-08-21T18:55:52.364Z,41.30
2022-08-21T19:02:04.072Z,41.30
2022-08-21T19:14:23.372Z,41.00
2022-08-21T19:20:34.207Z,41.10
2022-08-21T19:26:45.237Z,41.00
2022-08-21T19:32:54.313Z,41.10
2022-08-21T19:39:05.463Z,41.00
2022-08-21T19:45:16.718Z,41.00
2022-08-21T19:51:25.776Z,41.10
2022-08-21T19:57:38.156Z,41.00
2022-08-21T20:03:54.214Z,41.00
2022-08-21T20:09:58.802Z,41.00
2022-08-21T20:16:12.580Z,41.00
2022-08-21T20:22:22.646Z,41.10
2022-08-21T20:28:39.744Z,41.00
2022-08-21T20:34:51.828Z,41.10
2022-08-21T20:41:00.729Z,41.00
2022-08-21T20:47:11.720Z,41.00
2022-08-21T20:53:25.065Z,41.00
2022-08-21T20:59:47.538Z,41.00
2022-08-21T21:06:00.595Z,41.10
2022-08-21T21:12:12.994Z,41.10
2022-08-21T21:18:26.048Z,41.10
2022-08-21T21:24:40.389Z,41.10
2022-08-21T21:30:55.567Z,41.10
2022-08-21T21:37:00.497Z,41.20
2022-08-21T21:43:12.857Z,41.30
2022-08-21T21:49:35.079Z,41.20
2022-08-21T21:55:57.788Z,41.10
2022-08-21T22:02:09.651Z,41.20
2022-08-21T22:08:24.199Z,41.30
2022-08-21T22:14:40.668Z,41.40
2022-08-21T22:20:54.485Z,41.20
2022-08-21T22:27:12.845Z,41.10
2022-08-21T22:33:21.441Z,41.10
2022-08-21T22:39:39.014Z,41.30
2022-08-21T22:45:53.309Z,41.40
2022-08-21T22:52:06.155Z,41.30
2022-08-21T22:58:20.565Z,41.30
2022-08-21T23:04:33.757Z,41.30
2022-08-21T23:10:44.784Z,41.40
2022-08-21T23:16:58.953Z,41.40
2022-08-21T23:23:10.115Z,41.30
2022-08-21T23:29:25.643Z,41.30
2022-08-21T23:35:55.357Z,41.40
2022-08-21T23:42:09.160Z,41.70
2022-08-21T23:48:29.429Z,41.50
2022-08-21T23:54:41.207Z,41.60
